createdAt,value
2018-11-03T00:00:47.734Z,102233.63
2018-11-03T00:03:52.134Z,102240.86
2018-11-03T00:06:56.226Z,102235.75
2018-11-03T00:10:00.309Z,102240.41
2018-11-03T00:13:04.642Z,102241.70
2018-11-03T00:16:09.076Z,102237.89
2018-11-03T00:19:13.167Z,102244.22
2018-11-03T00:22:17.266Z,102245.07
2018-11-03T00:25:21.335Z,102243.38
2018-11-03T00:28:25.430Z,102253.56
2018-11-03T00:31:29.510Z,102251.84
2018-11-03T00:34:34.165Z,102252.27
2018-11-03T00:37:38.254Z,102259.47
2018-11-03T00:40:42.361Z,102264.98
2018-11-03T00:43:46.437Z,102261.59
2018-11-03T00:46:50.530Z,102268.38
2018-11-03T00:49:54.647Z,102270.47
2018-11-03T00:52:58.705Z,102282.34
2018-11-03T00:56:02.789Z,102275.98
2018-11-03T00:59:06.875Z,102284.42
2018-11-03T01:02:10.974Z,102289.94
2018-11-03T01:05:15.133Z,102288.66
2018-11-03T01:08:19.553Z,102292.91
2018-11-03T01:11:23.637Z,102295.02
2018-11-03T01:14:27.505Z,102294.56
2018-11-03T01:17:31.593Z,102297.09
2018-11-03T01:20:36.040Z,102309.38
2018-11-03T01:23:40.188Z,102312.73
2018-11-03T01:26:44.437Z,102316.53
2018-11-03T01:29:48.518Z,102308.02
2018-11-03T01:32:52.611Z,102312.67
2018-11-03T01:35:56.698Z,102318.60
2018-11-03T01:39:00.797Z,102314.36
2018-11-03T01:42:05.222Z,102314.36
2018-11-03T01:45:09.677Z,102312.66
2018-11-03T01:48:14.093Z,102314.73
2018-11-03T01:51:18.182Z,102309.27
2018-11-03T01:54:22.367Z,102312.66
2018-11-03T01:57:26.414Z,102318.54
2018-11-03T02:00:30.850Z,102315.52
2018-11-03T02:03:34.932Z,102312.60
2018-11-03T02:06:39.019Z,102313.03
2018-11-03T02:09:43.093Z,102310.00
2018-11-03T02:12:47.201Z,102316.37
2018-11-03T02:15:51.276Z,102313.02
2018-11-03T02:18:55.357Z,102314.24
2018-11-03T02:21:59.462Z,102316.77
2018-11-03T02:25:04.110Z,102318.42
2018-11-03T02:28:08.261Z,102324.82
2018-11-03T02:31:12.346Z,102319.30
2018-11-03T02:34:16.792Z,102315.88
2018-11-03T02:37:20.880Z,102313.75
2018-11-03T02:40:24.949Z,102306.55
2018-11-03T02:43:29.046Z,102312.91
2018-11-03T02:46:33.125Z,102315.80
2018-11-03T02:49:37.233Z,102312.47
2018-11-03T02:52:41.612Z,102320.92
2018-11-03T02:55:45.691Z,102320.02
2018-11-03T02:58:49.794Z,102314.95
2018-11-03T03:01:54.208Z,102321.73
2018-11-03T03:04:58.301Z,102321.31
2018-11-03T03:08:02.233Z,102322.20
2018-11-03T03:11:06.381Z,102322.14
2018-11-03T03:14:10.806Z,102320.87
2018-11-03T03:17:14.689Z,102319.58
2018-11-03T03:20:19.106Z,102331.44
2018-11-03T03:23:23.190Z,102336.94
2018-11-03T03:26:27.272Z,102334.41
2018-11-03T03:29:31.398Z,102331.37
2018-11-03T03:32:35.413Z,102333.06
2018-11-03T03:35:39.512Z,102335.61
2018-11-03T03:38:43.589Z,102341.45
2018-11-03T03:41:47.681Z,102347.34
2018-11-03T03:44:51.753Z,102348.20
2018-11-03T03:47:55.847Z,102350.30
2018-11-03T03:50:59.931Z,102351.17
2018-11-03T03:54:04.157Z,102354.14
2018-11-03T03:57:08.314Z,102353.72
2018-11-03T04:00:12.898Z,102363.00
2018-11-03T04:03:16.774Z,102354.97
2018-11-03T04:06:20.883Z,102363.84
2018-11-03T04:09:24.957Z,102362.55
2018-11-03T04:12:29.078Z,102358.34
2018-11-03T04:15:33.161Z,102363.73
2018-11-03T04:18:37.233Z,102362.91
2018-11-03T04:21:41.325Z,102364.16
2018-11-03T04:24:45.450Z,102359.92
2018-11-03T04:27:49.528Z,102369.59
2018-11-03T04:30:53.940Z,102370.45
2018-11-03T04:33:58.177Z,102367.06
2018-11-03T04:37:02.260Z,102366.95
2018-11-03T04:40:07.942Z,102361.03
2018-11-03T04:43:12.029Z,102360.55
2018-11-03T04:46:16.100Z,102370.31
2018-11-03T04:49:20.185Z,102370.72
2018-11-03T04:52:24.279Z,102374.42
2018-11-03T04:55:28.346Z,102366.37
2018-11-03T04:58:32.767Z,102371.01
2018-11-03T05:01:36.855Z,102377.30
2018-11-03T05:04:40.930Z,102374.27
2018-11-03T05:07:45.018Z,102378.11
2018-11-03T05:10:49.099Z,102381.83
2018-11-03T05:13:53.182Z,102378.38
2018-11-03T05:16:57.265Z,102373.36
2018-11-03T05:20:01.376Z,102378.40
2018-11-03T05:23:05.749Z,102367.80
2018-11-03T05:26:09.829Z,102369.81
2018-11-03T05:29:13.902Z,102369.78
2018-11-03T05:32:18.319Z,102370.66
2018-11-03T05:35:22.401Z,102373.91
2018-11-03T05:38:26.494Z,102378.16
2018-11-03T05:41:30.705Z,102376.88
2018-11-03T05:44:35.097Z,102379.80
2018-11-03T05:47:39.179Z,102380.55
2018-11-03T05:50:43.270Z,102382.66
2018-11-03T05:53:47.673Z,102385.08
2018-11-03T05:56:51.753Z,102378.78
2018-11-03T05:59:55.835Z,102390.14
2018-11-03T06:03:00.246Z,102388.95
2018-11-03T06:06:04.324Z,102390.52
2018-11-03T06:09:09.490Z,102391.38
2018-11-03T06:12:13.577Z,102397.16
2018-11-03T06:15:17.990Z,102400.53
2018-11-03T06:18:22.080Z,102397.55
2018-11-03T06:21:26.249Z,102400.50
2018-11-03T06:24:30.325Z,102405.97
2018-11-03T06:27:34.714Z,102410.09
2018-11-03T06:30:38.590Z,102416.36
2018-11-03T06:33:42.694Z,102410.09
2018-11-03T06:36:46.909Z,102413.03
2018-11-03T06:39:51.010Z,102412.99
2018-11-03T06:42:55.096Z,102421.73
2018-11-03T06:45:59.186Z,102420.02
2018-11-03T06:49:08.565Z,102421.39
2018-11-03T06:52:13.074Z,102431.84
2018-11-03T06:55:17.051Z,102430.69
2018-11-03T06:58:21.450Z,102431.80
2018-11-03T07:01:25.538Z,102441.94
2018-11-03T07:04:29.592Z,102449.58
2018-11-03T07:07:33.678Z,102455.76
2018-11-03T07:10:44.487Z,102456.27
2018-11-03T07:13:48.574Z,102452.81
2018-11-03T07:16:52.658Z,102452.83
2018-11-03T07:19:56.541Z,102457.42
2018-11-03T07:23:00.618Z,102460.55
2018-11-03T07:26:04.598Z,102466.40
2018-11-03T07:29:08.669Z,102471.23
2018-11-03T07:32:12.791Z,102463.66
2018-11-03T07:35:17.395Z,102465.41
2018-11-03T07:38:21.485Z,102464.72
2018-11-03T07:41:25.613Z,102471.63
2018-11-03T07:44:29.635Z,102469.94
2018-11-03T07:47:33.721Z,102467.08
2018-11-03T07:50:37.596Z,102469.24
2018-11-03T07:53:41.672Z,102469.81
2018-11-03T07:56:46.078Z,102468.28
2018-11-03T07:59:50.166Z,102472.55
2018-11-03T08:02:54.275Z,102477.32
2018-11-03T08:05:58.359Z,102473.63
2018-11-03T08:09:02.998Z,102480.46
2018-11-03T08:12:06.978Z,102475.10
2018-11-03T08:15:11.653Z,102481.66
2018-11-03T08:18:15.721Z,102482.15
2018-11-03T08:21:19.794Z,102477.59
2018-11-03T08:24:23.882Z,102477.30
2018-11-03T08:27:27.958Z,102478.22
2018-11-03T08:30:32.048Z,102481.30
2018-11-03T08:33:35.946Z,102474.62
2018-11-03T08:36:40.047Z,102472.19
2018-11-03T08:39:44.269Z,102463.39
2018-11-03T08:42:48.277Z,102464.75
2018-11-03T08:45:52.352Z,102463.56
2018-11-03T08:48:56.474Z,102461.46
2018-11-03T08:52:00.510Z,102464.50
2018-11-03T08:55:04.946Z,102473.03
2018-11-03T08:58:08.996Z,102472.62
2018-11-03T09:01:13.402Z,102476.49
2018-11-03T09:04:17.487Z,102478.20
2018-11-03T09:07:21.368Z,102481.22
2018-11-03T09:10:25.785Z,102475.30
2018-11-03T09:13:29.862Z,102476.58
2018-11-03T09:16:33.926Z,102477.05
2018-11-03T09:19:38.005Z,102475.78
2018-11-03T09:22:42.200Z,102480.48
2018-11-03T09:25:46.197Z,102471.59
2018-11-03T09:28:50.284Z,102480.93
2018-11-03T09:31:54.418Z,102492.84
2018-11-03T09:34:58.454Z,102494.55
2018-11-03T09:38:02.540Z,102491.16
2018-11-03T09:41:06.617Z,102487.34
2018-11-03T09:44:10.690Z,102489.50
2018-11-03T09:47:14.855Z,102487.38
2018-11-03T09:50:19.295Z,102482.72
2018-11-03T09:53:23.356Z,102485.73
2018-11-03T09:56:27.490Z,102482.33
2018-11-03T09:59:31.502Z,102488.31
2018-11-03T10:02:35.601Z,102486.61
2018-11-03T10:05:39.670Z,102484.06
2018-11-03T10:08:43.803Z,102484.06
2018-11-03T10:11:47.869Z,102484.09
2018-11-03T10:14:51.945Z,102467.53
2018-11-03T10:17:56.345Z,102467.98
2018-11-03T10:21:00.413Z,102458.64
2018-11-03T10:24:05.525Z,102467.59
2018-11-03T10:27:09.614Z,102465.03
2018-11-03T10:30:14.717Z,102469.27
2018-11-03T10:33:18.800Z,102460.37
2018-11-03T10:36:23.213Z,102459.95
2018-11-03T10:39:27.299Z,102463.76
2018-11-03T10:42:31.712Z,102467.61
2018-11-03T10:45:35.789Z,102458.25
2018-11-03T10:48:40.286Z,102455.30
2018-11-03T10:51:44.605Z,102454.00
2018-11-03T10:54:48.694Z,102448.47
2018-11-03T10:57:53.123Z,102437.04
2018-11-03T11:01:02.504Z,102433.63
2018-11-03T11:04:12.176Z,102433.18
2018-11-03T11:07:22.081Z,102425.55
2018-11-03T11:10:32.295Z,102430.20
2018-11-03T11:13:37.533Z,102437.02
2018-11-03T11:16:42.114Z,102432.33
2018-11-03T11:19:46.143Z,102429.77
2018-11-03T11:22:50.228Z,102431.88
2018-11-03T11:25:54.102Z,102431.04
2018-11-03T11:28:58.192Z,102436.13
2018-11-03T11:32:02.612Z,102436.52
2018-11-03T11:35:06.739Z,102432.30
2018-11-03T11:38:11.509Z,102435.25
2018-11-03T11:41:15.723Z,102440.33
2018-11-03T11:44:19.637Z,102435.24
2018-11-03T11:47:23.505Z,102442.03
2018-11-03T11:50:27.433Z,102445.00
2018-11-03T11:53:33.149Z,102442.00
2018-11-03T11:56:37.263Z,102439.01
2018-11-03T11:59:41.358Z,102438.16
2018-11-03T12:02:45.518Z,102435.17
2018-11-03T12:05:49.617Z,102427.06
2018-11-03T12:08:53.714Z,102432.16
2018-11-03T12:11:58.126Z,102423.65
2018-11-03T12:15:02.218Z,102419.78
2018-11-03T12:18:06.945Z,102416.37
2018-11-03T12:21:11.352Z,102410.84
2018-11-03T12:24:15.765Z,102411.67
2018-11-03T12:27:20.203Z,102411.23
2018-11-03T12:30:24.837Z,102406.11
2018-11-03T12:33:29.286Z,102412.07
2018-11-03T12:36:33.357Z,102409.92
2018-11-03T12:39:37.440Z,102409.89
2018-11-03T12:42:41.513Z,102402.22
2018-11-03T12:45:45.623Z,102402.66
2018-11-03T12:48:49.709Z,102403.05
2018-11-03T12:51:53.878Z,102407.70
2018-11-03T12:54:58.090Z,102398.73
2018-11-03T12:58:02.189Z,102389.37
2018-11-03T13:01:06.283Z,102390.23
2018-11-03T13:04:10.444Z,102391.06
2018-11-03T13:07:14.469Z,102396.16
2018-11-03T13:10:18.581Z,102392.73
2018-11-03T13:13:22.448Z,102397.39
2018-11-03T13:16:26.350Z,102380.34
2018-11-03T13:19:30.213Z,102383.33
2018-11-03T13:22:34.113Z,102387.98
2018-11-03T13:25:38.433Z,102381.58
2018-11-03T13:28:42.316Z,102384.97
2018-11-03T13:31:46.377Z,102389.22
2018-11-03T13:34:50.389Z,102390.91
2018-11-03T13:37:54.513Z,102392.19
2018-11-03T13:40:58.443Z,102394.75
2018-11-03T13:44:02.517Z,102388.78
2018-11-03T13:47:07.358Z,102383.22
2018-11-03T13:50:11.567Z,102385.77
2018-11-03T13:53:15.493Z,102384.91
2018-11-03T13:56:19.625Z,102380.62
2018-11-03T13:59:23.522Z,102375.52
2018-11-03T14:02:27.442Z,102382.75
2018-11-03T14:05:31.340Z,102377.20
2018-11-03T14:08:35.314Z,102375.91
2018-11-03T14:11:39.653Z,102377.19
2018-11-03T14:14:43.533Z,102379.75
2018-11-03T14:17:47.427Z,102375.08
2018-11-03T14:20:51.304Z,102374.23
2018-11-03T14:23:55.189Z,102372.53
2018-11-03T14:26:59.095Z,102368.67
2018-11-03T14:30:03.247Z,102365.29
2018-11-03T14:33:07.663Z,102358.02
2018-11-03T14:36:11.634Z,102362.28
2018-11-03T14:39:15.671Z,102355.89
2018-11-03T14:42:19.766Z,102354.63
2018-11-03T14:45:23.703Z,102354.19
2018-11-03T14:48:27.997Z,102355.05
2018-11-03T14:51:31.894Z,102354.61
2018-11-03T14:54:35.779Z,102357.60
2018-11-03T14:57:39.662Z,102354.20
2018-11-03T15:00:43.571Z,102352.92
2018-11-03T15:03:47.451Z,102344.41
2018-11-03T15:06:51.342Z,102344.02
2018-11-03T15:09:55.307Z,102345.29
2018-11-03T15:12:59.556Z,102347.84
2018-11-03T15:16:03.433Z,102335.95
2018-11-03T15:19:07.472Z,102332.55
2018-11-03T15:22:11.406Z,102336.42
2018-11-03T15:25:15.451Z,102332.16
2018-11-03T15:28:19.325Z,102328.37
2018-11-03T15:31:23.205Z,102334.76
2018-11-03T15:34:27.227Z,102330.95
2018-11-03T15:37:31.281Z,102330.95
2018-11-03T15:40:35.157Z,102336.53
2018-11-03T15:43:39.129Z,102327.61
2018-11-03T15:46:43.449Z,102327.64
2018-11-03T15:49:47.351Z,102330.19
2018-11-03T15:52:51.430Z,102321.30
2018-11-03T15:55:55.293Z,102315.38
2018-11-03T15:58:59.215Z,102316.71
2018-11-03T16:02:03.445Z,102319.30
2018-11-03T16:05:07.356Z,102313.83
2018-11-03T16:08:11.778Z,102315.16
2018-11-03T16:11:15.680Z,102313.95
2018-11-03T16:14:19.545Z,102310.58
2018-11-03T16:17:23.430Z,102304.66
2018-11-03T16:20:27.327Z,102308.54
2018-11-03T16:23:31.218Z,102315.80
2018-11-03T16:26:35.424Z,102311.55
2018-11-03T16:29:39.315Z,102305.66
2018-11-03T16:32:44.026Z,102307.80
2018-11-03T16:35:48.315Z,102307.80
2018-11-03T16:38:52.527Z,102305.70
2018-11-03T16:41:56.424Z,102310.78
2018-11-03T16:45:00.321Z,102302.30
2018-11-03T16:48:04.466Z,102303.59
2018-11-03T16:51:08.678Z,102296.81
2018-11-03T16:54:12.551Z,102301.08
2018-11-03T16:57:16.436Z,102293.85
2018-11-03T17:00:20.683Z,102295.14
2018-11-03T17:03:24.585Z,102294.33
2018-11-03T17:06:28.474Z,102293.05
2018-11-03T17:09:32.398Z,102292.20
2018-11-03T17:12:36.399Z,102293.06
2018-11-03T17:15:40.401Z,102296.45
2018-11-03T17:18:44.319Z,102300.69
2018-11-03T17:21:48.685Z,102296.87
2018-11-03T17:24:52.599Z,102292.20
2018-11-03T17:27:56.979Z,102292.19
2018-11-03T17:31:00.860Z,102290.92
2018-11-03T17:34:05.300Z,102292.61
2018-11-03T17:37:09.187Z,102286.23
2018-11-03T17:40:13.524Z,102294.72
2018-11-03T17:43:17.597Z,102297.70
2018-11-03T17:46:21.472Z,102294.31
2018-11-03T17:49:25.349Z,102293.45
2018-11-03T17:52:29.246Z,102293.44
2018-11-03T17:55:33.128Z,102293.00
2018-11-03T17:58:37.002Z,102293.42
2018-11-03T18:01:40.942Z,102284.94
2018-11-03T18:04:45.311Z,102282.80
2018-11-03T18:07:49.181Z,102283.64
2018-11-03T18:10:53.105Z,102287.03
2018-11-03T18:13:56.982Z,102282.77
2018-11-03T18:17:00.867Z,102285.73
2018-11-03T18:20:05.855Z,102284.03
2018-11-03T18:23:09.733Z,102296.30
2018-11-03T18:26:13.721Z,102294.59
2018-11-03T18:29:17.743Z,102290.36
2018-11-03T18:32:21.609Z,102289.93
2018-11-03T18:35:25.691Z,102294.09
2018-11-03T18:38:29.633Z,102286.46
2018-11-03T18:41:33.538Z,102285.19
2018-11-03T18:44:37.594Z,102285.56
2018-11-03T18:47:41.481Z,102286.84
2018-11-03T18:50:45.622Z,102279.62
2018-11-03T18:53:49.522Z,102275.38
2018-11-03T18:56:53.418Z,102279.16
2018-11-03T18:59:57.291Z,102274.49
2018-11-03T19:03:01.175Z,102280.83
2018-11-03T19:06:05.728Z,102273.59
2018-11-03T19:09:10.051Z,102279.56
2018-11-03T19:12:14.423Z,102279.04
2018-11-03T19:15:18.334Z,102284.55
2018-11-03T19:18:22.214Z,102279.94
2018-11-03T19:21:26.082Z,102281.14
2018-11-03T19:24:30.160Z,102278.17
2018-11-03T19:27:34.037Z,102274.30
2018-11-03T19:30:38.010Z,102277.27
2018-11-03T19:33:41.940Z,102277.73
2018-11-03T19:36:45.986Z,102278.53
2018-11-03T19:39:49.862Z,102285.72
2018-11-03T19:42:53.749Z,102284.83
2018-11-03T19:45:57.637Z,102279.32
2018-11-03T19:49:01.515Z,102283.95
2018-11-03T19:52:05.738Z,102285.22
2018-11-03T19:55:09.950Z,102277.52
2018-11-03T19:58:13.930Z,102270.76
2018-11-03T20:01:17.821Z,102266.51
2018-11-03T20:04:21.749Z,102270.69
2018-11-03T20:07:25.971Z,102268.06
2018-11-03T20:10:29.923Z,102272.36
2018-11-03T20:13:33.796Z,102265.52
2018-11-03T20:16:37.682Z,102268.47
2018-11-03T20:19:41.566Z,102265.94
2018-11-03T20:22:45.527Z,102267.19
2018-11-03T20:25:49.748Z,102263.82
2018-11-03T20:28:53.625Z,102270.51
2018-11-03T20:31:57.568Z,102265.86
2018-11-03T20:35:01.593Z,102264.13
2018-11-03T20:38:06.245Z,102258.14
2018-11-03T20:41:10.351Z,102244.53
2018-11-03T20:44:14.264Z,102255.08
2018-11-03T20:47:18.138Z,102249.22
2018-11-03T20:50:22.051Z,102240.20
2018-11-03T20:53:25.993Z,102241.47
2018-11-03T20:56:29.868Z,102239.41
2018-11-03T20:59:33.746Z,102237.23
2018-11-03T21:02:37.625Z,102230.45
2018-11-03T21:05:41.516Z,102230.44
2018-11-03T21:08:45.390Z,102219.81
2018-11-03T21:11:49.269Z,102229.15
2018-11-03T21:14:53.518Z,102224.84
2018-11-03T21:17:57.394Z,102218.11
2018-11-03T21:21:01.286Z,102214.64
2018-11-03T21:24:05.407Z,102214.61
2018-11-03T21:27:10.539Z,102218.75
2018-11-03T21:30:15.095Z,102214.09
2018-11-03T21:33:19.457Z,102212.06
2018-11-03T21:36:23.442Z,102206.00
2018-11-03T21:39:27.314Z,102203.52
2018-11-03T21:42:31.402Z,102199.66
2018-11-03T21:45:35.362Z,102199.59
2018-11-03T21:48:39.226Z,102194.48
2018-11-03T21:51:43.308Z,102191.57
2018-11-03T21:54:47.173Z,102189.00
2018-11-03T21:57:51.071Z,102185.07
2018-11-03T22:00:54.945Z,102171.15
2018-11-03T22:04:05.154Z,102173.27
2018-11-03T22:07:09.025Z,102178.64
2018-11-03T22:10:12.907Z,102165.64
2018-11-03T22:13:16.780Z,102162.17
2018-11-03T22:16:20.658Z,102160.38
2018-11-03T22:19:24.537Z,102150.67
2018-11-03T22:22:28.749Z,102151.06
2018-11-03T22:25:32.962Z,102148.86
2018-11-03T22:28:36.958Z,102146.36
2018-11-03T22:31:40.846Z,102142.94
2018-11-03T22:34:44.921Z,102143.37
2018-11-03T22:37:48.798Z,102133.67
2018-11-03T22:40:52.687Z,102136.61
2018-11-03T22:43:56.569Z,102130.58
2018-11-03T22:47:00.797Z,102128.88
2018-11-03T22:50:04.790Z,102118.71
2018-11-03T22:53:08.989Z,102112.41
2018-11-03T22:56:12.874Z,102114.93
2018-11-03T22:59:16.970Z,102117.40
2018-11-03T23:02:21.098Z,102098.33
2018-11-03T23:05:25.305Z,102098.24
2018-11-03T23:08:29.193Z,102095.30
2018-11-03T23:11:33.076Z,102093.08
2018-11-03T23:14:36.989Z,102087.64
2018-11-03T23:17:41.057Z,102079.66
2018-11-03T23:20:44.923Z,102070.81
2018-11-03T23:23:48.811Z,102075.86
2018-11-03T23:26:52.682Z,102074.84
2018-11-03T23:29:56.704Z,102062.97
2018-11-03T23:33:00.650Z,102064.72
2018-11-03T23:36:04.913Z,102062.20
2018-11-03T23:39:10.334Z,102058.28
2018-11-03T23:42:14.214Z,102060.75
2018-11-03T23:45:18.654Z,102055.22
2018-11-03T23:48:22.711Z,102057.78
2018-11-03T23:51:26.814Z,102067.12
2018-11-03T23:54:30.709Z,102059.97
2018-11-03T23:57:34.598Z,102059.55
